Time;durP1;ratioP1;P1;durP2;ratioP2;P2;SDS_P1;SDS_P2;PMS_P1;PMS_P2;Temp;Humidity;BMP_temperature;BMP_pressure;BME280_temperature;BME280_humidity;BME280_pressure;Samples;Min_cycle;Max_cycle;Signal;HPM_P1;HPM_P2
2022/10/15 00:00:08;;;;;;;6.03;4.40;;;12.80;99.90;;;;;;5047951;28;20578;-83
2022/10/15 00:02:34;;;;;;;8.20;4.63;;;12.80;99.90;;;;;;5014716;28;20035;-85
2022/10/15 00:04:59;;;;;;;6.28;4.38;;;12.70;99.90;;;;;;5015106;28;20029;-85
2022/10/15 00:07:28;;;;;;;8.15;5.55;;;12.80;99.90;;;;;;5047536;28;20043;-85
2022/10/15 00:09:53;;;;;;;7.97;5.45;;;12.70;99.90;;;;;;5045210;28;20397;-83
2022/10/15 00:12:19;;;;;;;11.68;6.15;;;12.80;99.90;;;;;;5041133;28;20036;-84
2022/10/15 00:14:45;;;;;;;10.40;5.63;;;12.80;99.90;;;;;;5047506;28;20033;-86
2022/10/15 00:17:11;;;;;;;10.27;5.90;;;12.80;99.90;;;;;;5047595;28;20040;-83
2022/10/15 00:19:36;;;;;;;8.77;6.72;;;12.90;99.90;;;;;;5046353;28;20529;-85
2022/10/15 00:22:02;;;;;;;8.10;5.85;;;12.90;99.90;;;;;;5030006;28;20137;-85
2022/10/15 00:24:28;;;;;;;8.40;6.18;;;12.90;99.90;;;;;;5018175;28;20672;-86
2022/10/15 00:26:54;;;;;;;8.65;5.80;;;12.90;99.90;;;;;;5046527;28;20117;-86
2022/10/15 00:29:20;;;;;;;8.80;5.63;;;12.90;99.90;;;;;;5033370;28;20059;-84
2022/10/15 00:31:45;;;;;;;9.00;5.60;;;12.90;99.90;;;;;;5050767;28;20057;-86
2022/10/15 00:34:12;;;;;;;9.27;4.97;;;12.90;99.90;;;;;;5050717;28;20112;-85
2022/10/15 00:36:39;;;;;;;7.25;5.43;;;12.80;99.90;;;;;;5040182;28;20025;-86
2022/10/15 00:39:06;;;;;;;7.90;5.57;;;12.80;99.90;;;;;;5045270;28;20040;-86
2022/10/15 00:41:36;;;;;;;6.80;5.38;;;12.80;99.90;;;;;;5050691;28;20515;-85
2022/10/15 00:44:24;;;;;;;9.15;5.32;;;12.80;99.90;;;;;;5065317;28;20042;-85
2022/10/15 00:47:08;;;;;;;8.32;5.68;;;12.80;99.90;;;;;;5049630;28;20052;-85
2022/10/15 00:49:38;;;;;;;7.03;5.13;;;12.90;99.90;;;;;;5048239;28;20037;-84
2022/10/15 00:52:05;;;;;;;9.20;5.13;;;12.80;99.90;;;;;;5054482;28;20028;-85
2022/10/15 00:54:42;;;;;;;9.48;5.70;;;12.80;99.90;;;;;;5051116;28;20560;-86
2022/10/15 00:57:10;;;;;;;8.40;5.38;;;12.80;99.90;;;;;;5050240;28;20082;-85
2022/10/15 00:59:40;;;;;;;7.55;5.18;;;12.80;99.90;;;;;;5030036;28;20029;-86
2022/10/15 01:02:06;;;;;;;7.65;4.95;;;12.80;99.90;;;;;;5039345;28;20032;-84
2022/10/15 01:04:34;;;;;;;6.00;4.53;;;12.80;99.90;;;;;;5051390;28;20511;-84
2022/10/15 01:07:00;;;;;;;5.15;4.03;;;12.80;99.90;;;;;;5044115;28;20504;-85
2022/10/15 01:09:26;;;;;;;13.07;5.10;;;12.80;99.90;;;;;;5030722;28;20629;-86
2022/10/15 01:11:54;;;;;;;7.82;4.53;;;12.80;99.90;;;;;;5049225;28;20446;-84
2022/10/15 01:14:48;;;;;;;7.93;4.82;;;12.80;99.90;;;;;;5063155;28;20711;-83
2022/10/15 01:17:26;;;;;;;8.50;4.80;;;12.70;99.90;;;;;;5047861;28;20117;-86
2022/10/15 01:20:14;;;;;;;6.38;4.97;;;12.70;99.90;;;;;;5060115;28;20035;-84
2022/10/15 01:23:01;;;;;;;9.38;4.15;;;12.70;99.90;;;;;;5030272;28;20021;-85
2022/10/15 01:25:51;;;;;;;6.95;4.30;;;12.80;99.90;;;;;;5063506;28;20158;-86
2022/10/15 01:28:36;;;;;;;7.68;4.55;;;12.80;99.90;;;;;;5050684;28;20028;-85
2022/10/15 01:31:25;;;;;;;5.45;3.92;;;12.70;99.90;;;;;;5039640;28;20023;-83
2022/10/15 01:34:02;;;;;;;3.25;2.95;;;12.80;99.90;;;;;;5057201;28;20037;-85
2022/10/15 01:36:34;;;;;;;5.10;3.35;;;12.80;99.90;;;;;;5044246;28;20123;-86
2022/10/15 01:39:13;;;;;;;5.20;3.40;;;12.80;99.90;;;;;;5050658;28;20382;-85
2022/10/15 01:41:43;;;;;;;4.28;3.53;;;12.80;99.90;;;;;;5049964;28;20032;-85
2022/10/15 01:44:21;;;;;;;3.55;3.25;;;12.80;99.90;;;;;;5049564;28;20115;-85
2022/10/15 01:47:32;;;;;;;4.43;3.30;;;12.80;99.90;;;;;;5048441;28;20037;-83
2022/10/15 01:50:01;;;;;;;4.88;3.17;;;12.80;99.90;;;;;;5044032;28;20039;-85
2022/10/15 01:52:35;;;;;;;4.65;3.10;;;12.80;99.90;;;;;;5049992;28;20036;-84
2022/10/15 01:55:05;;;;;;;4.85;3.17;;;12.80;99.90;;;;;;5049844;28;20021;-84
2022/10/15 01:57:34;;;;;;;5.95;3.35;;;12.80;99.90;;;;;;5066671;28;20650;-85
2022/10/15 02:00:01;;;;;;;3.45;2.80;;;12.80;99.90;;;;;;5016885;28;20681;-85
2022/10/15 02:02:27;;;;;;;4.97;3.15;;;12.80;99.90;;;;;;5048309;28;20033;-86
2022/10/15 02:04:53;;;;;;;4.72;3.20;;;12.80;99.90;;;;;;5040659;28;20081;-84
2022/10/15 02:08:06;;;;;;;4.72;2.90;;;12.80;99.90;;;;;;5066596;28;20121;-85
2022/10/15 02:10:42;;;;;;;3.80;2.85;;;12.80;99.90;;;;;;5059831;28;20036;-85
2022/10/15 02:13:12;;;;;;;5.68;3.10;;;12.80;99.90;;;;;;5066873;28;20035;-86
2022/10/15 02:15:51;;;;;;;3.22;2.40;;;12.80;99.90;;;;;;5047056;28;20120;-86
2022/10/15 02:18:26;;;;;;;8.05;3.03;;;12.80;99.90;;;;;;5067100;28;20032;-85
2022/10/15 02:21:17;;;;;;;5.85;2.90;;;12.80;99.90;;;;;;5065948;28;20017;-85
2022/10/15 02:23:51;;;;;;;4.72;2.50;;;12.80;99.90;;;;;;5066265;28;20075;-84
2022/10/15 02:26:20;;;;;;;5.43;3.23;;;12.80;99.90;;;;;;5049069;28;20028;-85
2022/10/15 02:28:52;;;;;;;4.32;2.80;;;12.80;99.90;;;;;;5051911;28;20104;-85
2022/10/15 02:31:20;;;;;;;4.25;2.70;;;12.80;99.90;;;;;;5039258;28;20028;-84
2022/10/15 02:33:48;;;;;;;2.63;2.20;;;12.80;99.90;;;;;;5049230;28;20020;-83
2022/10/15 02:36:14;;;;;;;2.78;2.58;;;12.80;99.90;;;;;;5049570;28;20473;-85
2022/10/15 02:38:43;;;;;;;3.72;2.85;;;12.80;99.90;;;;;;5032534;28;20037;-85
2022/10/15 02:41:09;;;;;;;4.47;2.38;;;12.90;99.90;;;;;;5040263;28;20094;-86
2022/10/15 02:43:36;;;;;;;3.20;2.70;;;12.80;99.90;;;;;;5045455;28;20033;-85
2022/10/15 02:46:05;;;;;;;3.47;2.42;;;12.80;99.90;;;;;;5040466;28;20030;-84
2022/10/15 02:48:31;;;;;;;3.13;2.63;;;12.80;99.90;;;;;;5057805;28;20036;-85
2022/10/15 02:50:57;;;;;;;5.05;2.75;;;12.80;99.90;;;;;;5056397;28;20025;-84
2022/10/15 02:53:22;;;;;;;7.35;2.55;;;12.80;99.90;;;;;;5024599;28;20576;-85
2022/10/15 02:55:48;;;;;;;2.72;2.40;;;12.80;99.90;;;;;;5037830;28;20017;-85
2022/10/15 02:58:14;;;;;;;4.85;2.60;;;12.80;99.90;;;;;;5053131;28;20032;-85
2022/10/15 03:00:42;;;;;;;5.72;2.40;;;12.80;99.90;;;;;;5052610;28;20119;-85
2022/10/15 03:03:09;;;;;;;7.38;2.30;;;12.80;99.90;;;;;;5018001;28;20732;-86
2022/10/15 03:05:35;;;;;;;5.60;2.25;;;12.90;99.90;;;;;;5052586;28;20043;-84
2022/10/15 03:08:01;;;;;;;2.05;1.85;;;12.80;99.90;;;;;;5052709;28;20104;-85
2022/10/15 03:10:28;;;;;;;2.15;1.90;;;12.90;99.90;;;;;;5036042;28;20032;-84
2022/10/15 03:12:54;;;;;;;3.80;1.88;;;12.90;99.90;;;;;;5019321;28;20029;-85
2022/10/15 03:15:20;;;;;;;2.20;2.00;;;12.90;99.90;;;;;;5035683;28;20102;-85
2022/10/15 03:17:46;;;;;;;3.90;1.95;;;12.90;99.90;;;;;;5052751;28;20032;-85
2022/10/15 03:20:14;;;;;;;2.17;1.80;;;12.90;99.90;;;;;;5044115;28;20029;-86
2022/10/15 03:22:41;;;;;;;2.17;1.83;;;12.90;99.90;;;;;;5052313;28;20059;-86
2022/10/15 03:25:06;;;;;;;4.38;1.77;;;12.90;99.90;;;;;;5051693;28;20661;-86
2022/10/15 03:27:32;;;;;;;2.50;1.77;;;12.90;99.90;;;;;;5052226;28;20041;-84
2022/10/15 03:29:58;;;;;;;3.30;1.85;;;12.90;99.90;;;;;;5052242;28;20025;-86
2022/10/15 03:32:27;;;;;;;3.70;2.00;;;12.90;99.90;;;;;;5052238;28;20032;-86
2022/10/15 03:34:53;;;;;;;3.60;1.70;;;12.90;99.90;;;;;;5052127;28;20040;-85
2022/10/15 03:37:20;;;;;;;4.20;1.83;;;12.90;99.90;;;;;;5052201;28;20055;-84
2022/10/15 03:39:46;;;;;;;4.82;2.20;;;12.90;99.90;;;;;;5035658;28;20025;-85
2022/10/15 03:42:13;;;;;;;2.00;1.58;;;12.90;99.90;;;;;;5035646;28;20472;-86
2022/10/15 03:44:43;;;;;;;1.70;1.60;;;12.90;99.90;;;;;;5051370;28;20517;-86
2022/10/15 03:47:13;;;;;;;2.75;1.55;;;12.90;99.90;;;;;;5037097;28;20024;-86
2022/10/15 03:49:43;;;;;;;4.35;1.70;;;12.90;99.90;;;;;;5019903;28;20039;-86
2022/10/15 03:52:09;;;;;;;3.72;1.38;;;13.00;99.90;;;;;;5050981;28;20032;-86
2022/10/15 03:54:35;;;;;;;2.40;1.60;;;13.00;99.90;;;;;;5044236;28;20040;-86
2022/10/15 03:57:01;;;;;;;2.60;1.45;;;13.00;99.90;;;;;;5034417;28;20032;-85
2022/10/15 03:59:32;;;;;;;4.35;2.25;;;12.90;99.90;;;;;;5046165;28;20039;-86
2022/10/15 04:02:01;;;;;;;2.28;1.45;;;13.00;99.90;;;;;;5051212;28;20040;-86
2022/10/15 04:04:28;;;;;;;5.70;1.70;;;13.00;99.90;;;;;;5051672;28;20907;-86
2022/10/15 04:06:53;;;;;;;1.95;1.50;;;13.00;99.90;;;;;;5018877;28;20052;-86
2022/10/15 04:09:19;;;;;;;1.85;1.42;;;13.00;99.90;;;;;;5049364;28;20196;-86
2022/10/15 04:11:45;;;;;;;3.67;1.40;;;13.00;99.90;;;;;;5048187;28;20523;-85
2022/10/15 04:14:12;;;;;;;5.53;1.52;;;13.00;99.90;;;;;;5046470;28;20120;-85
2022/10/15 04:16:38;;;;;;;1.60;1.50;;;13.00;99.90;;;;;;5041099;28;20116;-86
2022/10/15 04:19:30;;;;;;;1.65;1.30;;;13.00;99.90;;;;;;5043003;28;20032;-85
2022/10/15 04:22:02;;;;;;;2.55;1.33;;;13.00;99.90;;;;;;5045593;28;20056;-84
2022/10/15 04:24:32;;;;;;;1.27;1.17;;;13.00;99.90;;;;;;5051016;28;20119;-86
2022/10/15 04:26:58;;;;;;;1.60;1.30;;;13.00;99.90;;;;;;5050758;28;20765;-85
2022/10/15 04:29:24;;;;;;;4.63;1.23;;;13.00;99.90;;;;;;5047003;28;20127;-85
2022/10/15 04:31:49;;;;;;;1.38;1.27;;;13.00;99.90;;;;;;5050405;28;20223;-85
2022/10/15 04:34:15;;;;;;;1.42;1.20;;;13.00;99.90;;;;;;5044153;28;20119;-84
2022/10/15 04:36:42;;;;;;;2.47;1.40;;;13.00;99.90;;;;;;5035816;28;20028;-85
2022/10/15 04:39:14;;;;;;;1.70;1.60;;;13.00;99.90;;;;;;5047896;28;20090;-86
2022/10/15 04:41:42;;;;;;;1.45;1.35;;;13.00;99.90;;;;;;5018263;28;20384;-85
2022/10/15 04:44:11;;;;;;;1.38;1.27;;;13.00;99.90;;;;;;5051015;28;20112;-85
2022/10/15 04:46:38;;;;;;;1.55;1.35;;;12.90;99.90;;;;;;5057795;28;20262;-85
2022/10/15 04:49:21;;;;;;;2.45;0.95;;;13.00;99.90;;;;;;5066944;28;20028;-84
2022/10/15 04:51:47;;;;;;;1.05;0.70;;;13.00;99.90;;;;;;5058315;28;20207;-85
2022/10/15 04:54:19;;;;;;;1.42;0.90;;;13.00;99.90;;;;;;5062076;28;20020;-85
2022/10/15 04:56:55;;;;;;;0.68;0.68;;;13.00;99.90;;;;;;5064712;28;20028;-85
2022/10/15 04:59:21;;;;;;;0.70;0.70;;;13.00;99.90;;;;;;5023081;28;20445;-85
2022/10/15 05:02:10;;;;;;;0.68;0.68;;;13.00;99.90;;;;;;5035891;28;20125;-85
2022/10/15 05:04:36;;;;;;;1.00;0.70;;;13.00;99.90;;;;;;5050511;28;20603;-86
2022/10/15 05:07:02;;;;;;;3.50;0.60;;;13.00;99.90;;;;;;5049785;28;20033;-85
2022/10/15 05:09:29;;;;;;;1.38;0.50;;;13.00;99.90;;;;;;5050708;28;20392;-86
2022/10/15 05:11:56;;;;;;;2.25;0.52;;;13.00;99.90;;;;;;5045674;28;20529;-85
2022/10/15 05:14:22;;;;;;;0.73;0.70;;;13.00;99.90;;;;;;5050408;28;20112;-85
2022/10/15 05:17:04;;;;;;;0.57;0.57;;;13.00;99.90;;;;;;5058116;28;20028;-85
2022/10/15 05:19:35;;;;;;;1.67;0.50;;;13.00;99.90;;;;;;5036391;28;20622;-85
2022/10/15 05:22:01;;;;;;;1.05;0.70;;;13.00;99.90;;;;;;5054961;28;20025;-85
2022/10/15 05:24:26;;;;;;;0.77;0.77;;;13.00;99.90;;;;;;5023606;28;20040;-85
2022/10/15 05:27:12;;;;;;;;;;;13.00;99.90;;;;;;5068892;28;20635;-86
2022/10/15 05:29:38;;;;;;;1.83;0.90;;;13.00;99.90;;;;;;5067881;28;19917;-86
2022/10/15 05:32:05;;;;;;;1.95;0.80;;;13.00;99.90;;;;;;5055273;28;20032;-86
2022/10/15 05:34:32;;;;;;;2.20;1.00;;;13.00;99.90;;;;;;5047472;28;20432;-85
2022/10/15 05:37:13;;;;;;;2.33;0.85;;;13.00;99.90;;;;;;5060252;28;20349;-85
2022/10/15 05:39:39;;;;;;;0.75;0.75;;;13.00;99.90;;;;;;5023726;28;20055;-85
2022/10/15 05:42:05;;;;;;;2.08;0.80;;;13.00;99.90;;;;;;5033666;28;20119;-86
2022/10/15 05:44:37;;;;;;;2.22;0.80;;;13.00;99.90;;;;;;5051219;28;20658;-86
2022/10/15 05:47:03;;;;;;;0.73;0.73;;;13.00;99.90;;;;;;5041711;28;20144;-86
2022/10/15 05:49:29;;;;;;;2.28;0.80;;;13.00;99.90;;;;;;5021752;28;20071;-85
2022/10/15 05:52:08;;;;;;;1.75;1.30;;;13.00;99.90;;;;;;5047329;28;20405;-85
2022/10/15 05:55:00;;;;;;;1.20;1.00;;;13.00;99.90;;;;;;5053378;28;20537;-85
2022/10/15 05:57:25;;;;;;;2.92;0.90;;;13.00;99.90;;;;;;5049677;28;20040;-85
2022/10/15 05:59:51;;;;;;;0.75;0.75;;;13.10;99.90;;;;;;5021279;28;20370;-85
2022/10/15 06:02:17;;;;;;;0.75;0.75;;;13.00;99.90;;;;;;5016590;28;20548;-86
2022/10/15 06:04:43;;;;;;;1.42;0.57;;;13.10;99.90;;;;;;5057575;28;20645;-84
2022/10/15 06:07:09;;;;;;;2.45;0.50;;;13.10;99.90;;;;;;5032726;28;20481;-86
2022/10/15 06:09:35;;;;;;;0.60;0.60;;;13.10;99.90;;;;;;5031071;28;20025;-86
2022/10/15 06:12:00;;;;;;;0.70;0.50;;;13.10;99.90;;;;;;5039627;28;20567;-84
2022/10/15 06:14:26;;;;;;;0.40;0.40;;;13.10;99.90;;;;;;5029875;28;20567;-85
2022/10/15 06:16:53;;;;;;;0.30;0.30;;;13.10;99.90;;;;;;5024452;28;20075;-85
2022/10/15 06:19:20;;;;;;;0.80;0.50;;;13.20;99.90;;;;;;5051767;28;20067;-85
2022/10/15 06:21:46;;;;;;;1.60;0.45;;;13.20;99.90;;;;;;5049491;28;20037;-86
2022/10/15 06:24:12;;;;;;;1.92;0.43;;;13.20;99.90;;;;;;5050232;28;20117;-84
2022/10/15 06:26:37;;;;;;;0.52;0.43;;;13.20;99.90;;;;;;5053014;28;20036;-85
2022/10/15 06:29:03;;;;;;;0.52;0.52;;;13.20;99.90;;;;;;5056932;28;20166;-84
2022/10/15 06:31:30;;;;;;;0.60;0.60;;;13.20;99.90;;;;;;5052828;28;20044;-85
2022/10/15 06:33:56;;;;;;;0.50;0.35;;;13.30;99.90;;;;;;5053393;28;20056;-85
2022/10/15 06:36:23;;;;;;;1.23;0.35;;;13.30;99.90;;;;;;5053073;28;20071;-85
2022/10/15 06:38:48;;;;;;;1.30;1.20;;;13.30;99.90;;;;;;5070207;28;20041;-84
2022/10/15 06:41:15;;;;;;;2.58;0.50;;;13.30;99.90;;;;;;5060490;28;20044;-85
2022/10/15 06:43:41;;;;;;;1.48;0.50;;;13.40;99.90;;;;;;5051260;28;20071;-85
2022/10/15 06:46:08;;;;;;;0.50;0.50;;;13.40;99.90;;;;;;5054848;28;20575;-85
2022/10/15 06:48:34;;;;;;;0.52;0.52;;;13.40;99.90;;;;;;5030226;28;20040;-84
2022/10/15 06:51:01;;;;;;;1.88;0.73;;;13.40;99.90;;;;;;5052963;28;20024;-85
2022/10/15 06:53:27;;;;;;;1.00;0.85;;;13.50;99.90;;;;;;5065806;28;20024;-85
2022/10/15 06:56:01;;;;;;;2.55;1.13;;;13.50;99.90;;;;;;5035842;28;20035;-85
2022/10/15 06:58:32;;;;;;;1.15;0.90;;;13.50;99.90;;;;;;5061219;28;20696;-85
2022/10/15 07:01:00;;;;;;;0.88;0.80;;;13.50;99.90;;;;;;5046416;28;20036;-86
2022/10/15 07:03:26;;;;;;;1.55;0.85;;;13.60;99.90;;;;;;5052285;28;20060;-85
2022/10/15 07:05:52;;;;;;;1.98;0.70;;;13.60;99.90;;;;;;5048084;28;20386;-85
2022/10/15 07:08:17;;;;;;;0.65;0.60;;;13.60;99.90;;;;;;5051460;28;20054;-85
2022/10/15 07:10:43;;;;;;;0.55;0.40;;;13.70;99.90;;;;;;5019362;28;20386;-85
2022/10/15 07:13:09;;;;;;;0.60;0.40;;;13.70;99.90;;;;;;5032994;28;20029;-84
2022/10/15 07:15:34;;;;;;;2.00;0.35;;;13.70;99.90;;;;;;5057459;28;20631;-86
2022/10/15 07:18:00;;;;;;;2.47;0.35;;;13.80;99.90;;;;;;5024670;28;20028;-85
2022/10/15 07:20:30;;;;;;;0.20;0.20;;;13.80;99.90;;;;;;5045486;28;20400;-86
2022/10/15 07:23:00;;;;;;;1.58;0.40;;;13.90;99.90;;;;;;5032550;28;20087;-84
2022/10/15 07:25:29;;;;;;;8.80;0.60;;;14.00;99.90;;;;;;5036905;28;20068;-86
2022/10/15 07:27:56;;;;;;;1.10;0.50;;;14.00;99.90;;;;;;5024628;28;20045;-86
2022/10/15 07:30:26;;;;;;;0.47;0.47;;;14.00;99.90;;;;;;5040013;28;20169;-85
2022/10/15 07:32:52;;;;;;;0.40;0.35;;;14.10;99.90;;;;;;5046950;28;20013;-85
2022/10/15 07:35:18;;;;;;;2.70;0.40;;;14.10;99.90;;;;;;5029052;28;20036;-85
2022/10/15 07:37:43;;;;;;;5.18;3.60;;;14.10;99.90;;;;;;5049412;28;20170;-86
2022/10/15 07:40:10;;;;;;;0.50;0.50;;;14.10;99.90;;;;;;5020177;28;20509;-86
2022/10/15 07:42:36;;;;;;;0.50;0.30;;;14.20;99.90;;;;;;5040629;28;20032;-86
2022/10/15 07:45:02;;;;;;;0.38;0.30;;;14.20;99.90;;;;;;5022628;28;20381;-85
2022/10/15 07:47:28;;;;;;;1.08;0.50;;;14.20;99.90;;;;;;5017655;28;20039;-84
2022/10/15 07:49:54;;;;;;;3.70;0.35;;;14.20;99.90;;;;;;5050885;28;20055;-85
2022/10/15 07:52:19;;;;;;;0.43;0.43;;;14.20;99.90;;;;;;5038271;28;20112;-86
2022/10/15 07:54:45;;;;;;;0.30;0.30;;;14.30;99.90;;;;;;5061304;28;20110;-85
2022/10/15 07:57:16;;;;;;;2.40;0.30;;;14.30;99.90;;;;;;5040297;28;20489;-86
2022/10/15 07:59:42;;;;;;;38.35;2.45;;;14.30;99.90;;;;;;5029285;28;20037;-86
2022/10/15 08:02:15;;;;;;;2.28;0.90;;;14.30;99.90;;;;;;5044263;28;20048;-85
2022/10/15 08:04:41;;;;;;;4.20;0.65;;;14.30;99.90;;;;;;5052721;28;20037;-85
2022/10/15 08:07:06;;;;;;;1.17;0.30;;;14.40;99.90;;;;;;5046160;28;20135;-86
2022/10/15 08:09:32;;;;;;;1.75;0.40;;;14.40;99.90;;;;;;5026302;28;22099;-86
2022/10/15 08:11:58;;;;;;;5.28;0.55;;;14.40;99.90;;;;;;5029014;28;20111;-86
2022/10/15 08:14:24;;;;;;;3.53;0.40;;;14.50;99.90;;;;;;5028417;28;20171;-85
2022/10/15 08:16:50;;;;;;;0.40;0.30;;;14.50;99.90;;;;;;5044469;28;20509;-85
2022/10/15 08:19:16;;;;;;;3.67;0.60;;;14.50;99.90;;;;;;5038946;28;20151;-85
2022/10/15 08:21:45;;;;;;;8.60;0.73;;;14.50;99.90;;;;;;5039448;28;20031;-86
2022/10/15 08:24:11;;;;;;;4.50;0.60;;;14.50;99.90;;;;;;5026177;28;20033;-87
2022/10/15 08:26:37;;;;;;;2.90;1.02;;;14.50;99.90;;;;;;5044505;28;20409;-86
2022/10/15 08:29:03;;;;;;;14.30;1.35;;;14.50;99.90;;;;;;5048004;28;20126;-85
2022/10/15 08:31:30;;;;;;;0.98;0.60;;;14.50;99.90;;;;;;5058910;28;20452;-86
2022/10/15 08:33:59;;;;;;;14.68;1.20;;;14.50;99.90;;;;;;5034368;28;20503;-85
2022/10/15 08:36:24;;;;;;;23.98;1.70;;;14.50;99.90;;;;;;5064398;28;20449;-85
2022/10/15 08:38:50;;;;;;;21.30;2.92;;;14.50;99.90;;;;;;5045616;28;20040;-86
2022/10/15 08:41:45;;;;;;;13.00;3.20;;;14.50;99.90;;;;;;5041702;28;20086;-86
2022/10/15 08:44:26;;;;;;;16.05;2.33;;;14.50;99.90;;;;;;5036917;28;20040;-85
2022/10/15 08:47:21;;;;;;;1.10;1.00;;;14.50;99.90;;;;;;5053973;28;20483;-85
2022/10/15 08:49:52;;;;;;;7.95;1.70;;;14.50;99.90;;;;;;5057966;28;20024;-85
2022/10/15 08:52:49;;;;;;;2.42;1.90;;;14.50;99.90;;;;;;5053060;28;20052;-85
2022/10/15 08:55:18;;;;;;;29.23;2.50;;;14.40;99.90;;;;;;5061426;28;20032;-84
2022/10/15 08:58:17;;;;;;;6.45;1.35;;;14.40;99.90;;;;;;5036762;28;20117;-85
2022/10/15 09:00:54;;;;;;;7.55;1.45;;;14.50;99.90;;;;;;5027997;28;20561;-85
2022/10/15 09:03:27;;;;;;;8.15;1.42;;;14.50;99.90;;;;;;5055567;28;20028;-86
2022/10/15 09:06:06;;;;;;;42.47;3.17;;;14.60;99.90;;;;;;5041479;28;20032;-84
2022/10/15 09:08:58;;;;;;;52.05;2.88;;;14.60;99.90;;;;;;5062756;28;20020;-84
2022/10/15 09:11:58;;;;;;;1.23;0.70;;;14.60;99.90;;;;;;5047995;28;20084;-85
2022/10/15 09:14:30;;;;;;;3.75;1.20;;;14.70;99.90;;;;;;5060222;28;20033;-84
2022/10/15 09:17:02;;;;;;;4.43;0.77;;;14.70;99.90;;;;;;5070516;28;20033;-86
2022/10/15 09:19:30;;;;;;;1.63;0.85;;;14.80;99.90;;;;;;5044476;28;20060;-85
2022/10/15 09:21:59;;;;;;;2.45;0.70;;;14.70;99.90;;;;;;5009427;28;20067;-85
2022/10/15 09:24:29;;;;;;;12.50;1.35;;;14.80;99.90;;;;;;5016692;28;20043;-86
2022/10/15 09:27:32;;;;;;;6.60;1.10;;;14.80;99.90;;;;;;5055946;28;20381;-85
2022/10/15 09:30:22;;;;;;;5.55;0.88;;;14.80;99.90;;;;;;5026642;28;20051;-85
2022/10/15 09:33:01;;;;;;;4.65;0.88;;;14.90;99.90;;;;;;5040127;28;20536;-86
2022/10/15 09:35:26;;;;;;;5.13;1.25;;;14.90;99.90;;;;;;5040876;28;20163;-85
2022/10/15 09:38:17;;;;;;;11.63;1.15;;;14.90;99.90;;;;;;5043365;28;20152;-85
2022/10/15 09:40:51;;;;;;;5.63;1.45;;;14.90;99.90;;;;;;5061184;28;20056;-85
2022/10/15 09:43:26;;;;;;;1.15;0.80;;;14.90;99.90;;;;;;5045095;28;20428;-84
2022/10/15 09:45:52;;;;;;;0.93;0.93;;;14.90;99.90;;;;;;5038616;28;20028;-84
2022/10/15 09:48:20;;;;;;;4.07;1.30;;;14.90;99.90;;;;;;5043092;28;20040;-86
2022/10/15 09:51:02;;;;;;;3.97;1.20;;;15.00;99.90;;;;;;5048645;28;20111;-86
2022/10/15 09:53:37;;;;;;;2.25;1.20;;;15.00;99.90;;;;;;5036447;28;20021;-85
2022/10/15 09:56:18;;;;;;;4.53;1.23;;;15.00;99.90;;;;;;5059034;28;20523;-86
2022/10/15 09:58:49;;;;;;;9.35;1.45;;;15.00;99.90;;;;;;5066475;28;20631;-85
2022/10/15 10:01:22;;;;;;;2.40;1.08;;;15.10;99.90;;;;;;5044541;28;20029;-84
2022/10/15 10:03:54;;;;;;;1.73;1.10;;;15.20;99.90;;;;;;5037587;28;20146;-83
2022/10/15 10:06:22;;;;;;;17.10;2.22;;;15.30;99.90;;;;;;5084286;28;20036;-85
2022/10/15 10:08:58;;;;;;;9.43;1.75;;;15.40;99.90;;;;;;5062959;28;20077;-84
2022/10/15 10:11:44;;;;;;;1.13;0.90;;;15.50;99.90;;;;;;5038834;28;20369;-84
2022/10/15 10:14:25;;;;;;;1.20;1.10;;;15.50;99.90;;;;;;5047650;28;20029;-85
2022/10/15 10:17:19;;;;;;;1.15;0.98;;;15.50;99.90;;;;;;5061973;28;20046;-86
2022/10/15 10:20:02;;;;;;;1.10;1.00;;;15.50;99.90;;;;;;5047922;28;20036;-84
2022/10/15 10:22:28;;;;;;;1.88;0.88;;;15.50;99.90;;;;;;5047833;28;20185;-86
2022/10/15 10:24:54;;;;;;;2.85;0.98;;;15.50;99.90;;;;;;5033295;28;20556;-86
2022/10/15 10:27:26;;;;;;;1.05;0.93;;;15.50;99.90;;;;;;5043696;28;20425;-85
2022/10/15 10:30:00;;;;;;;2.38;0.90;;;15.50;99.90;;;;;;5042883;28;20056;-86
2022/10/15 10:32:32;;;;;;;1.58;1.08;;;15.60;99.90;;;;;;5055430;28;20040;-87
2022/10/15 10:35:01;;;;;;;1.70;1.40;;;15.70;99.90;;;;;;5040671;28;20021;-84
2022/10/15 10:37:28;;;;;;;1.10;1.00;;;16.00;99.90;;;;;;5044929;28;20033;-85
2022/10/15 10:39:57;;;;;;;1.10;0.80;;;16.10;99.90;;;;;;5040702;28;20024;-85
2022/10/15 10:42:32;;;;;;;0.80;0.80;;;16.30;99.90;;;;;;5076297;28;20501;-85
2022/10/15 10:45:21;;;;;;;2.15;0.80;;;16.40;99.90;;;;;;5047256;28;20032;-85
2022/10/15 10:47:47;;;;;;;0.60;0.60;;;16.50;99.90;;;;;;5057958;28;20029;-86
2022/10/15 10:50:32;;;;;;;0.98;0.50;;;16.60;99.90;;;;;;5046885;28;20029;-84
2022/10/15 10:53:35;;;;;;;3.10;0.82;;;16.60;99.90;;;;;;5065236;28;20103;-83
2022/10/15 10:56:04;;;;;;;0.73;0.52;;;16.60;99.90;;;;;;5037554;28;20119;-86
2022/10/15 10:58:33;;;;;;;0.60;0.50;;;16.50;99.90;;;;;;5050502;28;20125;-86
2022/10/15 11:00:59;;;;;;;2.22;0.60;;;16.50;99.90;;;;;;5062074;28;20040;-86
2022/10/15 11:03:35;;;;;;;0.73;0.73;;;16.40;99.90;;;;;;5045420;28;20478;-84
2022/10/15 11:06:07;;;;;;;6.28;0.82;;;16.40;99.90;;;;;;5045329;28;20401;-86
2022/10/15 11:08:55;;;;;;;0.75;0.75;;;16.30;99.90;;;;;;5040063;28;20028;-86
2022/10/15 11:11:28;;;;;;;1.23;0.80;;;16.20;99.90;;;;;;5053859;28;20021;-84
2022/10/15 11:13:54;;;;;;;0.80;0.80;;;16.20;99.90;;;;;;5058354;28;20040;-86
2022/10/15 11:16:47;;;;;;;0.70;0.70;;;16.20;99.90;;;;;;5042345;28;20063;-87
2022/10/15 11:19:33;;;;;;;1.02;0.93;;;16.20;99.90;;;;;;5063906;28;20029;-83
2022/10/15 11:22:02;;;;;;;1.27;0.60;;;16.30;99.90;;;;;;5042612;28;20028;-85
2022/10/15 11:24:47;;;;;;;0.77;0.77;;;16.30;99.90;;;;;;5062328;28;20024;-84
2022/10/15 11:27:26;;;;;;;1.40;0.50;;;16.30;99.90;;;;;;5059251;28;20033;-86
2022/10/15 11:30:00;;;;;;;1.38;0.50;;;16.40;99.90;;;;;;5060559;28;20096;-86
2022/10/15 11:32:35;;;;;;;1.13;0.63;;;16.40;99.90;;;;;;5051055;28;20029;-84
2022/10/15 11:35:04;;;;;;;0.52;0.52;;;16.40;99.90;;;;;;5064987;28;20052;-83
2022/10/15 11:37:32;;;;;;;0.65;0.50;;;16.50;99.90;;;;;;5065400;28;20131;-85
2022/10/15 11:40:11;;;;;;;0.57;0.57;;;16.50;99.90;;;;;;5059022;28;20035;-86
2022/10/15 11:42:56;;;;;;;3.42;0.63;;;16.40;99.90;;;;;;5047355;28;20042;-85
2022/10/15 11:45:53;;;;;;;0.52;0.50;;;16.40;99.90;;;;;;5046619;28;20048;-83
2022/10/15 11:49:06;;;;;;;0.55;0.55;;;16.30;99.90;;;;;;5036644;28;20587;-86
2022/10/15 11:51:54;;;;;;;1.50;0.70;;;16.30;99.90;;;;;;5015808;28;20150;-84
2022/10/15 11:54:29;;;;;;;1.90;0.60;;;16.30;99.90;;;;;;5051344;28;20049;-85
2022/10/15 11:56:58;;;;;;;0.75;0.65;;;16.30;99.90;;;;;;5055590;28;20074;-86
2022/10/15 11:59:50;;;;;;;0.90;0.50;;;16.40;99.90;;;;;;5029149;28;20589;-84
2022/10/15 12:02:18;;;;;;;0.70;0.70;;;16.40;99.90;;;;;;5055202;28;20029;-84
2022/10/15 12:05:18;;;;;;;1.15;0.85;;;16.40;99.90;;;;;;5046617;28;20036;-86
2022/10/15 12:07:50;;;;;;;1.48;0.80;;;16.50;99.90;;;;;;5045694;28;20033;-85
2022/10/15 12:10:38;;;;;;;1.52;0.60;;;16.60;99.90;;;;;;5016600;28;20035;-82
2022/10/15 12:13:40;;;;;;;0.50;0.50;;;16.60;99.90;;;;;;5043852;28;20522;-85
2022/10/15 12:16:20;;;;;;;0.73;0.68;;;16.70;99.90;;;;;;5038510;28;20064;-83
2022/10/15 12:18:54;;;;;;;1.50;0.55;;;16.70;99.90;;;;;;5040219;28;20111;-85
2022/10/15 12:21:42;;;;;;;2.55;1.08;;;16.70;99.90;;;;;;5038172;28;20131;-85
2022/10/15 12:24:36;;;;;;;1.13;0.60;;;16.70;99.90;;;;;;5042485;28;20048;-84
2022/10/15 12:27:18;;;;;;;1.83;0.60;;;16.70;99.90;;;;;;5057995;28;20040;-85
2022/10/15 12:29:48;;;;;;;0.50;0.50;;;16.70;99.90;;;;;;5028479;28;20041;-85
2022/10/15 12:32:27;;;;;;;1.10;0.80;;;16.60;99.90;;;;;;5052318;28;20021;-85
2022/10/15 12:34:58;;;;;;;1.48;0.50;;;16.50;99.90;;;;;;5038278;28;20032;-85
2022/10/15 12:37:27;;;;;;;0.60;0.60;;;16.50;99.90;;;;;;5042869;28;20024;-85
2022/10/15 12:40:22;;;;;;;0.82;0.82;;;16.50;99.90;;;;;;5036977;28;20488;-85
2022/10/15 12:43:16;;;;;;;0.60;0.60;;;16.50;99.90;;;;;;5040488;28;20041;-84
2022/10/15 12:46:01;;;;;;;0.65;0.65;;;16.50;99.90;;;;;;5043317;28;20050;-85
2022/10/15 12:48:35;;;;;;;0.70;0.70;;;16.50;99.90;;;;;;5045993;28;20170;-85
2022/10/15 12:51:24;;;;;;;4.47;0.75;;;16.60;99.90;;;;;;5040519;28;20107;-85
2022/10/15 12:53:55;;;;;;;1.00;0.60;;;16.60;99.90;;;;;;5036234;28;20772;-85
2022/10/15 12:56:40;;;;;;;0.75;0.70;;;16.70;99.90;;;;;;5036431;28;20033;-86
2022/10/15 12:59:30;;;;;;;1.02;1.02;;;16.60;99.90;;;;;;5039555;28;20740;-85
2022/10/15 13:02:00;;;;;;;0.90;0.90;;;16.60;99.90;;;;;;5031651;28;20763;-86
2022/10/15 13:04:37;;;;;;;1.25;1.15;;;16.60;99.90;;;;;;5044542;28;20178;-86
2022/10/15 13:07:05;;;;;;;1.63;1.20;;;16.60;99.90;;;;;;5049053;28;20028;-86
2022/10/15 13:09:31;;;;;;;2.05;1.15;;;16.50;99.90;;;;;;5037506;28;20041;-86
2022/10/15 13:11:59;;;;;;;1.60;1.50;;;16.50;99.90;;;;;;5039996;28;20104;-86